createdAt,value
2018-10-07T00:03:00.442Z,13.71
2018-10-07T00:06:03.997Z,13.73
2018-10-07T00:09:08.282Z,13.65
2018-10-07T00:12:11.808Z,13.75
2018-10-07T00:15:15.308Z,13.68
2018-10-07T00:18:18.858Z,13.66
2018-10-07T00:21:22.402Z,13.59
2018-10-07T00:24:26.070Z,13.47
2018-10-07T00:27:29.606Z,13.35
2018-10-07T00:30:33.139Z,13.27
2018-10-07T00:33:36.608Z,13.21
2018-10-07T00:36:40.197Z,13.20
2018-10-07T00:39:44.213Z,13.17
2018-10-07T00:42:47.795Z,13.16
2018-10-07T00:45:51.438Z,13.05
2018-10-07T00:48:55.091Z,13.05
2018-10-07T00:51:58.619Z,13.06
2018-10-07T00:55:02.178Z,13.10
2018-10-07T00:58:05.909Z,13.14
2018-10-07T01:01:09.590Z,13.16
2018-10-07T01:04:13.234Z,13.22
2018-10-07T01:07:16.886Z,13.30
2018-10-07T01:10:20.383Z,13.38
2018-10-07T01:13:23.958Z,13.44
2018-10-07T01:16:27.518Z,13.39
2018-10-07T01:19:31.294Z,13.39
2018-10-07T01:22:35.008Z,13.35
2018-10-07T01:25:38.590Z,13.44
2018-10-07T01:28:42.144Z,13.39
2018-10-07T01:31:45.738Z,13.36
2018-10-07T01:34:49.310Z,13.43
2018-10-07T01:37:52.935Z,13.51
2018-10-07T01:40:56.568Z,13.48
2018-10-07T01:44:00.221Z,13.51
2018-10-07T01:47:03.839Z,13.62
2018-10-07T01:50:07.595Z,13.51
2018-10-07T01:53:11.121Z,13.52
2018-10-07T01:56:14.635Z,13.68
2018-10-07T01:59:18.157Z,13.62
2018-10-07T02:02:21.715Z,13.55
2018-10-07T02:05:25.359Z,13.26
2018-10-07T02:08:29.012Z,13.18
2018-10-07T02:11:32.601Z,12.99
2018-10-07T02:14:36.386Z,12.89
2018-10-07T02:17:39.967Z,12.79
2018-10-07T02:20:43.658Z,12.66
2018-10-07T02:23:47.224Z,12.52
2018-10-07T02:26:50.885Z,12.42
2018-10-07T02:29:54.568Z,12.14
2018-10-07T02:32:58.165Z,12.17
2018-10-07T02:36:01.802Z,12.02
2018-10-07T02:39:07.195Z,11.77
2018-10-07T02:42:10.733Z,11.63
2018-10-07T02:45:14.352Z,11.44
2018-10-07T02:48:17.854Z,11.40
2018-10-07T02:51:21.724Z,11.32
2018-10-07T02:54:26.287Z,11.18
2018-10-07T02:57:29.960Z,11.12
2018-10-07T03:00:33.609Z,10.89
2018-10-07T03:03:37.182Z,10.80
2018-10-07T03:06:40.920Z,10.64
2018-10-07T03:09:44.449Z,10.55
2018-10-07T03:12:48.058Z,10.51
2018-10-07T03:15:51.695Z,10.38
2018-10-07T03:18:55.285Z,10.33
2018-10-07T03:21:58.909Z,10.28
2018-10-07T03:25:02.611Z,10.18
2018-10-07T03:28:06.211Z,10.13
2018-10-07T03:31:09.767Z,10.11
2018-10-07T03:34:13.410Z,10.14
2018-10-07T03:37:17.116Z,9.92
2018-10-07T03:40:20.717Z,9.84
2018-10-07T03:43:24.281Z,9.67
2018-10-07T03:46:27.837Z,9.67
2018-10-07T03:49:31.501Z,9.60
2018-10-07T03:52:34.992Z,9.65
2018-10-07T03:55:38.559Z,9.63
2018-10-07T03:58:42.091Z,9.53
2018-10-07T04:01:45.733Z,9.42
2018-10-07T04:04:49.319Z,9.37
2018-10-07T04:07:52.927Z,9.46
2018-10-07T04:10:56.461Z,9.51
2018-10-07T04:14:00.067Z,9.41
2018-10-07T04:17:03.620Z,9.35
2018-10-07T04:20:07.266Z,9.47
2018-10-07T04:23:10.819Z,9.53
2018-10-07T04:26:14.428Z,9.33
2018-10-07T04:29:17.917Z,9.34
2018-10-07T04:32:21.352Z,9.29
2018-10-07T04:35:24.887Z,9.26
2018-10-07T04:38:28.422Z,9.29
2018-10-07T04:41:31.935Z,9.18
2018-10-07T04:44:35.432Z,9.19
2018-10-07T04:47:38.954Z,9.18
2018-10-07T04:50:42.588Z,9.14
2018-10-07T04:53:46.233Z,9.16
2018-10-07T04:56:49.781Z,9.10
2018-10-07T04:59:53.301Z,9.07
2018-10-07T05:02:56.790Z,9.06
2018-10-07T05:06:00.567Z,9.03
2018-10-07T05:09:06.936Z,9.07
2018-10-07T05:12:10.786Z,9.07
2018-10-07T05:15:14.231Z,8.94
2018-10-07T05:18:17.871Z,8.89
2018-10-07T05:21:21.473Z,8.91
2018-10-07T05:24:25.032Z,8.81
2018-10-07T05:27:28.671Z,8.78
2018-10-07T05:30:32.361Z,8.81
2018-10-07T05:33:35.997Z,8.87
2018-10-07T05:36:39.393Z,8.76
2018-10-07T05:39:42.916Z,8.86
2018-10-07T05:42:46.472Z,8.85
2018-10-07T05:45:50.081Z,8.76
2018-10-07T05:48:53.734Z,8.75
2018-10-07T05:51:57.449Z,8.74
2018-10-07T05:55:01.090Z,8.78
2018-10-07T05:58:05.853Z,8.78
2018-10-07T06:01:12.180Z,8.77
2018-10-07T06:04:20.962Z,8.77
2018-10-07T06:07:25.321Z,8.76
2018-10-07T06:10:28.979Z,8.60
2018-10-07T06:13:32.532Z,8.66
2018-10-07T06:16:36.035Z,8.56
2018-10-07T06:19:39.697Z,8.52
2018-10-07T06:22:43.373Z,8.59
2018-10-07T06:25:46.995Z,8.60
2018-10-07T06:28:50.539Z,8.61
2018-10-07T06:31:54.217Z,8.71
2018-10-07T06:34:57.834Z,8.73
2018-10-07T06:38:01.544Z,8.66
2018-10-07T06:41:05.109Z,8.83
2018-10-07T06:44:08.682Z,8.77
2018-10-07T06:47:12.339Z,8.63
2018-10-07T06:50:16.103Z,8.67
2018-10-07T06:53:19.729Z,8.70
2018-10-07T06:56:23.290Z,8.36
2018-10-07T06:59:26.998Z,8.60
2018-10-07T07:02:30.646Z,8.49
2018-10-07T07:05:34.258Z,8.62
2018-10-07T07:08:37.819Z,8.56
2018-10-07T07:11:41.392Z,8.45
2018-10-07T07:14:45.029Z,8.37
2018-10-07T07:17:48.592Z,8.83
2018-10-07T07:20:52.140Z,9.10
2018-10-07T07:23:55.773Z,8.95
2018-10-07T07:26:59.525Z,9.09
2018-10-07T07:30:03.259Z,9.41
2018-10-07T07:33:06.819Z,9.61
2018-10-07T07:36:10.432Z,9.81
2018-10-07T07:39:14.093Z,9.82
2018-10-07T07:42:17.822Z,9.86
2018-10-07T07:45:21.539Z,9.76
2018-10-07T07:48:25.314Z,9.75
2018-10-07T07:51:28.897Z,10.03
2018-10-07T07:54:32.564Z,10.11
2018-10-07T07:57:36.378Z,10.12
2018-10-07T08:00:40.009Z,10.39
2018-10-07T08:03:43.658Z,10.33
2018-10-07T08:06:47.255Z,10.28
2018-10-07T08:09:50.950Z,10.26
2018-10-07T08:12:54.618Z,10.55
2018-10-07T08:15:58.242Z,10.50
2018-10-07T08:19:01.798Z,10.81
2018-10-07T08:22:05.390Z,10.79
2018-10-07T08:25:09.191Z,10.58
2018-10-07T08:28:12.746Z,10.45
2018-10-07T08:31:17.414Z,10.65
2018-10-07T08:34:21.054Z,10.54
2018-10-07T08:37:24.881Z,10.40
2018-10-07T08:40:28.530Z,10.71
2018-10-07T08:43:32.154Z,10.68
2018-10-07T08:46:35.701Z,10.63
2018-10-07T08:49:39.270Z,10.40
2018-10-07T08:52:43.190Z,10.60
2018-10-07T08:55:46.814Z,10.55
2018-10-07T08:58:50.369Z,10.60
2018-10-07T09:01:54.017Z,10.80
2018-10-07T09:04:57.601Z,10.74
2018-10-07T09:08:01.490Z,10.57
2018-10-07T09:11:05.008Z,10.62
2018-10-07T09:14:14.868Z,10.58
2018-10-07T09:17:18.653Z,10.70
2018-10-07T09:20:22.505Z,10.73
2018-10-07T09:23:26.256Z,10.78
2018-10-07T09:26:30.038Z,10.79
2018-10-07T09:29:33.709Z,10.75
2018-10-07T09:32:38.084Z,10.52
2018-10-07T09:35:41.576Z,10.87
2018-10-07T09:38:45.264Z,10.83
2018-10-07T09:41:48.930Z,10.84
2018-10-07T09:44:52.585Z,10.96
2018-10-07T09:47:56.325Z,10.95
2018-10-07T09:50:59.861Z,10.80
2018-10-07T09:54:03.479Z,11.07
2018-10-07T09:57:07.335Z,10.79
2018-10-07T10:00:11.192Z,10.99
2018-10-07T10:03:14.815Z,11.19
2018-10-07T10:06:18.445Z,11.28
2018-10-07T10:09:22.220Z,11.41
2018-10-07T10:12:25.885Z,11.38
2018-10-07T10:15:29.596Z,11.26
2018-10-07T10:18:57.140Z,11.19
2018-10-07T10:22:06.989Z,11.42
2018-10-07T10:25:18.899Z,11.44
2018-10-07T10:28:34.555Z,11.57
2018-10-07T10:32:17.453Z,11.75
2018-10-07T10:35:30.231Z,11.45
2018-10-07T10:38:40.937Z,11.52
2018-10-07T10:41:50.870Z,11.54
2018-10-07T10:44:57.898Z,11.69
2018-10-07T10:48:05.044Z,11.81
2018-10-07T10:51:19.088Z,11.57
2018-10-07T10:54:44.118Z,11.83
2018-10-07T10:57:50.795Z,11.90
2018-10-07T11:00:58.410Z,11.98
2018-10-07T11:04:13.052Z,11.84
2018-10-07T11:07:21.290Z,11.94
2018-10-07T11:10:32.185Z,11.76
2018-10-07T11:13:49.620Z,11.89
2018-10-07T11:17:31.036Z,11.98
2018-10-07T11:21:13.707Z,12.03
2018-10-07T11:24:20.298Z,11.97
2018-10-07T11:27:32.942Z,12.08
2018-10-07T11:30:44.735Z,11.99
2018-10-07T11:34:28.213Z,12.08
2018-10-07T11:37:40.772Z,11.99
2018-10-07T11:40:57.108Z,12.06
2018-10-07T11:44:05.337Z,12.03
2018-10-07T11:47:24.135Z,12.29
2018-10-07T11:50:33.685Z,12.34
2018-10-07T11:53:42.447Z,12.19
2018-10-07T11:56:46.105Z,12.27
2018-10-07T11:59:49.792Z,12.31
2018-10-07T12:02:53.526Z,12.10
2018-10-07T12:05:57.071Z,12.32
2018-10-07T12:09:00.809Z,12.25
2018-10-07T12:12:04.656Z,12.48
2018-10-07T12:15:08.325Z,12.41
2018-10-07T12:18:11.990Z,12.34
2018-10-07T12:21:15.647Z,12.43
2018-10-07T12:24:19.211Z,12.60
2018-10-07T12:27:22.827Z,12.66
2018-10-07T12:30:26.475Z,12.52
2018-10-07T12:33:30.019Z,12.47
2018-10-07T12:36:33.729Z,12.28
2018-10-07T12:39:37.303Z,12.36
2018-10-07T12:42:40.937Z,12.43
2018-10-07T12:45:44.628Z,12.64
2018-10-07T12:48:48.247Z,12.72
2018-10-07T12:51:51.919Z,12.60
2018-10-07T12:54:55.717Z,12.47
2018-10-07T12:57:59.271Z,12.60
2018-10-07T13:01:02.873Z,12.82
2018-10-07T13:04:06.437Z,12.65
2018-10-07T13:07:10.036Z,12.60
2018-10-07T13:10:13.677Z,12.67
2018-10-07T13:13:17.458Z,12.66
2018-10-07T13:16:21.037Z,12.78
2018-10-07T13:19:24.862Z,12.77
2018-10-07T13:22:28.443Z,12.77
2018-10-07T13:25:32.271Z,12.82
2018-10-07T13:28:35.987Z,12.74
2018-10-07T13:31:39.683Z,12.52
2018-10-07T13:34:43.241Z,12.87
2018-10-07T13:37:47.044Z,12.81
2018-10-07T13:40:50.722Z,13.11
2018-10-07T13:43:54.288Z,13.08
2018-10-07T13:46:57.968Z,13.05
2018-10-07T13:50:01.626Z,13.09
2018-10-07T13:53:05.254Z,13.03
2018-10-07T13:56:09.251Z,13.01
2018-10-07T13:59:12.999Z,13.00
2018-10-07T14:02:16.651Z,12.95
2018-10-07T14:05:20.369Z,13.09
2018-10-07T14:08:24.037Z,13.20
2018-10-07T14:11:27.664Z,13.15
2018-10-07T14:14:31.364Z,13.16
2018-10-07T14:17:34.963Z,13.21
2018-10-07T14:20:38.667Z,13.04
2018-10-07T14:23:42.312Z,13.20
2018-10-07T14:26:45.967Z,13.05
2018-10-07T14:29:49.668Z,13.11
2018-10-07T14:32:53.268Z,13.10
2018-10-07T14:35:56.885Z,13.03
2018-10-07T14:39:00.584Z,13.06
2018-10-07T14:42:04.417Z,13.23
2018-10-07T14:45:08.124Z,13.38
2018-10-07T14:48:11.796Z,13.19
2018-10-07T14:51:15.571Z,13.24
2018-10-07T14:54:19.297Z,13.31
2018-10-07T14:57:22.888Z,13.54
2018-10-07T15:00:26.652Z,13.27
2018-10-07T15:03:30.337Z,13.47
2018-10-07T15:06:34.067Z,13.18
2018-10-07T15:09:37.773Z,13.08
2018-10-07T15:12:41.380Z,13.24
2018-10-07T15:15:45.064Z,12.81
2018-10-07T15:18:48.686Z,12.77
2018-10-07T15:21:52.363Z,12.91
2018-10-07T15:24:56.073Z,12.87
2018-10-07T15:27:59.809Z,12.78
2018-10-07T15:31:03.634Z,12.52
2018-10-07T15:34:07.186Z,12.67
2018-10-07T15:37:10.920Z,12.43
2018-10-07T15:40:14.589Z,12.25
2018-10-07T15:43:18.183Z,12.27
2018-10-07T15:46:21.829Z,12.03
2018-10-07T15:49:25.495Z,11.88
2018-10-07T15:52:29.146Z,11.99
2018-10-07T15:55:32.694Z,11.85
2018-10-07T15:58:36.282Z,11.85
2018-10-07T16:01:40.636Z,11.97
2018-10-07T16:04:44.431Z,11.84
2018-10-07T16:07:48.056Z,11.75
2018-10-07T16:10:51.620Z,11.78
2018-10-07T16:13:55.142Z,11.73
2018-10-07T16:16:58.780Z,11.62
2018-10-07T16:20:02.310Z,11.45
2018-10-07T16:23:06.074Z,11.19
2018-10-07T16:26:09.889Z,11.39
2018-10-07T16:29:13.423Z,11.11
2018-10-07T16:32:17.117Z,10.93
2018-10-07T16:35:20.590Z,10.80
2018-10-07T16:38:24.239Z,10.56
2018-10-07T16:41:27.778Z,10.69
2018-10-07T16:44:31.479Z,10.63
2018-10-07T16:47:35.179Z,10.65
2018-10-07T16:50:38.784Z,10.55
2018-10-07T16:53:42.593Z,10.44
2018-10-07T16:56:46.209Z,10.27
2018-10-07T16:59:49.869Z,10.05
2018-10-07T17:02:53.589Z,9.79
2018-10-07T17:05:57.305Z,9.57
2018-10-07T17:09:00.920Z,9.37
2018-10-07T17:12:04.849Z,9.11
2018-10-07T17:15:08.609Z,9.06
2018-10-07T17:18:12.316Z,9.16
2018-10-07T17:21:15.865Z,9.07
2018-10-07T17:24:19.386Z,8.95
2018-10-07T17:27:22.902Z,9.19
2018-10-07T17:30:26.662Z,9.06
2018-10-07T17:33:30.399Z,9.06
2018-10-07T17:36:33.965Z,8.89
2018-10-07T17:39:37.686Z,8.74
2018-10-07T17:42:41.344Z,8.59
2018-10-07T17:45:44.920Z,8.58
2018-10-07T17:48:48.855Z,8.66
2018-10-07T17:51:52.656Z,8.61
2018-10-07T17:54:56.334Z,8.35
2018-10-07T17:57:59.891Z,8.34
2018-10-07T18:01:03.451Z,8.34
2018-10-07T18:04:07.135Z,8.17
2018-10-07T18:07:10.834Z,8.13
2018-10-07T18:10:14.496Z,8.15
2018-10-07T18:13:18.164Z,8.14
2018-10-07T18:16:21.982Z,7.92
2018-10-07T18:19:25.625Z,7.83
2018-10-07T18:22:29.562Z,7.75
2018-10-07T18:25:33.240Z,7.75
2018-10-07T18:28:36.940Z,7.69
2018-10-07T18:31:41.060Z,7.75
2018-10-07T18:34:44.731Z,7.69
2018-10-07T18:37:49.283Z,7.45
2018-10-07T18:40:53.181Z,7.47
2018-10-07T18:43:56.970Z,7.41
2018-10-07T18:47:00.716Z,7.47
2018-10-07T18:50:04.865Z,7.57
2018-10-07T18:53:08.740Z,7.47
2018-10-07T18:56:12.378Z,7.45
2018-10-07T18:59:16.046Z,7.58
2018-10-07T19:02:19.856Z,7.55
2018-10-07T19:05:23.497Z,7.39
2018-10-07T19:08:27.243Z,7.47
2018-10-07T19:11:30.898Z,7.33
2018-10-07T19:14:34.543Z,7.23
2018-10-07T19:17:38.172Z,7.19
2018-10-07T19:20:41.931Z,7.31
2018-10-07T19:23:45.646Z,7.29
2018-10-07T19:26:49.322Z,7.39
2018-10-07T19:29:52.971Z,7.42
2018-10-07T19:32:56.645Z,7.24
2018-10-07T19:36:00.327Z,7.20
2018-10-07T19:39:05.118Z,7.20
2018-10-07T19:42:08.786Z,7.11
2018-10-07T19:45:12.440Z,7.22
2018-10-07T19:48:16.003Z,7.20
2018-10-07T19:51:19.751Z,7.29
2018-10-07T19:54:23.533Z,7.15
2018-10-07T19:57:27.122Z,7.08
2018-10-07T20:00:30.829Z,7.03
2018-10-07T20:03:34.447Z,7.04
2018-10-07T20:06:38.012Z,7.03
2018-10-07T20:09:43.631Z,7.02
2018-10-07T20:12:47.595Z,6.98
2018-10-07T20:15:53.178Z,6.96
2018-10-07T20:18:57.498Z,6.97
2018-10-07T20:22:01.066Z,6.91
2018-10-07T20:25:05.045Z,6.96
2018-10-07T20:28:08.743Z,6.98
2018-10-07T20:31:12.712Z,6.90
2018-10-07T20:34:16.416Z,6.94
2018-10-07T20:37:20.016Z,6.86
2018-10-07T20:40:23.911Z,6.85
2018-10-07T20:43:27.666Z,6.81
2018-10-07T20:46:31.341Z,6.80
2018-10-07T20:49:35.132Z,6.85
2018-10-07T20:52:38.781Z,6.93
2018-10-07T20:55:42.333Z,6.78
2018-10-07T20:58:45.836Z,6.72
2018-10-07T21:01:49.457Z,6.70
2018-10-07T21:04:52.989Z,6.75
2018-10-07T21:07:56.635Z,6.95
2018-10-07T21:11:00.224Z,7.07
2018-10-07T21:14:03.994Z,7.31
2018-10-07T21:17:07.546Z,7.45
2018-10-07T21:20:11.011Z,7.18
2018-10-07T21:23:14.692Z,7.26
2018-10-07T21:26:18.199Z,7.30
2018-10-07T21:29:21.747Z,7.28
2018-10-07T21:32:25.283Z,7.17
2018-10-07T21:35:28.802Z,7.03
2018-10-07T21:38:32.381Z,7.05
2018-10-07T21:41:36.132Z,7.15
2018-10-07T21:44:39.461Z,7.05
2018-10-07T21:47:42.996Z,7.04
2018-10-07T21:50:46.625Z,6.87
2018-10-07T21:53:50.208Z,6.87
2018-10-07T21:56:53.697Z,6.88
2018-10-07T22:00:05.624Z,7.11
2018-10-07T22:03:09.129Z,7.27
2018-10-07T22:06:12.804Z,7.15
2018-10-07T22:09:16.364Z,7.07
2018-10-07T22:12:19.993Z,7.11
2018-10-07T22:15:23.558Z,7.08
2018-10-07T22:18:27.199Z,6.93
2018-10-07T22:21:30.686Z,6.87
2018-10-07T22:24:34.198Z,6.95
2018-10-07T22:27:37.707Z,6.86
2018-10-07T22:30:41.322Z,6.83
2018-10-07T22:33:44.864Z,6.90
2018-10-07T22:36:48.414Z,6.98
2018-10-07T22:39:51.954Z,6.98
2018-10-07T22:42:55.487Z,6.80
2018-10-07T22:45:59.028Z,6.61
2018-10-07T22:49:02.548Z,6.53
2018-10-07T22:52:06.282Z,6.50
2018-10-07T22:55:09.824Z,6.59
2018-10-07T22:58:13.392Z,6.59
2018-10-07T23:01:17.097Z,6.49
2018-10-07T23:04:20.565Z,6.40
2018-10-07T23:07:24.123Z,6.57
2018-10-07T23:10:27.618Z,6.56
2018-10-07T23:13:31.110Z,6.38
2018-10-07T23:16:34.689Z,6.49
2018-10-07T23:19:38.182Z,6.55
2018-10-07T23:22:42.662Z,6.75
2018-10-07T23:25:46.302Z,6.87
2018-10-07T23:28:49.803Z,6.74
2018-10-07T23:31:53.307Z,6.63
2018-10-07T23:34:56.861Z,6.44
2018-10-07T23:38:00.332Z,6.31
2018-10-07T23:41:04.077Z,6.15
2018-10-07T23:44:08.126Z,6.12
2018-10-07T23:47:11.584Z,6.11
2018-10-07T23:50:15.234Z,6.19
2018-10-07T23:53:18.833Z,6.17
2018-10-07T23:56:22.343Z,6.05
2018-10-07T23:59:25.865Z,6.11
